Time;durP1;ratioP1;P1;durP2;ratioP2;P2;SDS_P1;SDS_P2;PMS_P1;PMS_P2;Temp;Humidity;BMP_temperature;BMP_pressure;BME280_temperature;BME280_humidity;BME280_pressure;Samples;Min_cycle;Max_cycle;Signal;HPM_P1;HPM_P2
2022/05/17 00:00:12;;;;;;;4.87;4.37;;;16.00;99.90;;;;;;6091269;23;20808;-83
2022/05/17 00:02:40;;;;;;;6.93;4.20;;;16.10;99.90;;;;;;6083622;23;20461;-83
2022/05/17 00:05:09;;;;;;;5.00;4.03;;;16.10;99.90;;;;;;6085606;23;20464;-83
2022/05/17 00:07:36;;;;;;;5.47;3.80;;;16.10;99.90;;;;;;6089339;23;20438;-83
2022/05/17 00:10:03;;;;;;;5.07;3.93;;;16.10;99.90;;;;;;6089430;23;20438;-83
2022/05/17 00:12:30;;;;;;;5.73;3.70;;;16.00;99.90;;;;;;6088878;23;20857;-83
2022/05/17 00:14:57;;;;;;;5.23;4.17;;;16.00;99.90;;;;;;6086458;23;20442;-83
2022/05/17 00:17:25;;;;;;;4.90;4.40;;;16.00;99.90;;;;;;6087112;23;20453;-83
2022/05/17 00:19:54;;;;;;;5.90;4.40;;;16.00;99.90;;;;;;6088549;23;20860;-83
2022/05/17 00:22:21;;;;;;;4.87;4.13;;;16.00;99.90;;;;;;6086540;23;20477;-83
2022/05/17 00:24:47;;;;;;;4.70;3.90;;;16.00;99.90;;;;;;6084652;23;20438;-82
2022/05/17 00:27:15;;;;;;;4.57;4.00;;;16.00;99.90;;;;;;6083302;23;20775;-83
2022/05/17 00:29:42;;;;;;;4.50;4.10;;;16.00;99.90;;;;;;6087083;23;21022;-83
2022/05/17 00:32:09;;;;;;;4.23;3.83;;;16.00;99.90;;;;;;6088075;23;20443;-83
2022/05/17 00:34:36;;;;;;;4.33;3.93;;;16.00;99.90;;;;;;6090404;23;20958;-83
2022/05/17 00:37:05;;;;;;;4.53;4.13;;;16.00;99.90;;;;;;6088760;23;20500;-83
2022/05/17 00:39:32;;;;;;;5.30;3.80;;;16.00;99.90;;;;;;6086991;23;20864;-83
2022/05/17 00:42:00;;;;;;;5.83;4.00;;;16.00;99.90;;;;;;6088052;23;20560;-82
2022/05/17 00:44:45;;;;;;;4.20;3.90;;;16.00;99.90;;;;;;6089234;23;20995;-83
2022/05/17 00:47:17;;;;;;;4.23;3.80;;;16.00;99.90;;;;;;6089077;23;20910;-83
2022/05/17 00:49:49;;;;;;;4.40;4.00;;;16.00;99.90;;;;;;6087437;23;20470;-83
2022/05/17 00:52:20;;;;;;;3.63;3.30;;;16.00;99.90;;;;;;6089571;23;20482;-83
2022/05/17 00:54:48;;;;;;;5.60;4.43;;;16.00;99.90;;;;;;6087088;23;20447;-83
2022/05/17 00:57:21;;;;;;;4.23;3.60;;;16.10;99.90;;;;;;6088327;23;20534;-83
2022/05/17 00:59:50;;;;;;;3.90;3.50;;;16.10;99.90;;;;;;6083881;23;20527;-84
2022/05/17 01:02:17;;;;;;;3.83;3.53;;;16.10;99.90;;;;;;6080825;23;20442;-83
2022/05/17 01:04:44;;;;;;;4.27;3.87;;;16.10;99.90;;;;;;6087798;23;20787;-83
2022/05/17 01:07:21;;;;;;;5.10;4.37;;;16.10;99.90;;;;;;6088116;23;20550;-83
2022/05/17 01:09:48;;;;;;;4.70;4.17;;;16.10;99.90;;;;;;6085951;23;20980;-83
2022/05/17 01:12:16;;;;;;;4.87;4.23;;;16.00;99.90;;;;;;6085747;23;21024;-83
2022/05/17 01:14:57;;;;;;;4.80;4.40;;;16.00;99.90;;;;;;6090438;23;20462;-83
2022/05/17 01:17:24;;;;;;;5.37;4.87;;;16.00;99.90;;;;;;6087990;23;20485;-83
2022/05/17 01:19:52;;;;;;;7.67;5.37;;;15.80;99.90;;;;;;6086734;23;20460;-83
2022/05/17 01:22:20;;;;;;;5.57;4.90;;;15.70;99.90;;;;;;6086854;23;20532;-83
2022/05/17 01:24:47;;;;;;;5.43;4.87;;;15.60;99.90;;;;;;6087423;23;20520;-83
2022/05/17 01:27:20;;;;;;;5.97;5.30;;;15.50;99.90;;;;;;6081745;23;20442;-83
2022/05/17 01:29:49;;;;;;;5.93;5.33;;;15.40;99.90;;;;;;6084557;23;20457;-83
2022/05/17 01:32:16;;;;;;;5.97;5.47;;;15.30;99.90;;;;;;6082730;23;20488;-83
2022/05/17 01:34:44;;;;;;;5.67;5.10;;;15.20;99.90;;;;;;6088972;23;20859;-83
2022/05/17 01:37:13;;;;;;;6.73;6.03;;;15.10;99.90;;;;;;6082599;23;20448;-83
2022/05/17 01:39:41;;;;;;;6.40;5.87;;;15.10;99.90;;;;;;6087567;23;20468;-83
2022/05/17 01:42:10;;;;;;;6.63;6.07;;;15.10;99.90;;;;;;6078131;23;20885;-83
2022/05/17 01:44:38;;;;;;;6.80;6.27;;;14.90;99.90;;;;;;6082115;23;20861;-83
2022/05/17 01:47:06;;;;;;;7.10;6.23;;;15.10;99.90;;;;;;6088909;23;20513;-83
2022/05/17 01:49:33;;;;;;;6.17;5.67;;;15.10;99.90;;;;;;6084285;23;20498;-83
2022/05/17 01:52:00;;;;;;;5.83;5.33;;;15.10;99.90;;;;;;6088153;23;20532;-83
2022/05/17 01:54:27;;;;;;;6.43;5.93;;;15.10;99.90;;;;;;6090442;23;20657;-83
2022/05/17 01:56:55;;;;;;;6.87;6.27;;;15.10;99.90;;;;;;6090180;23;20515;-83
2022/05/17 01:59:22;;;;;;;6.70;6.10;;;15.10;99.90;;;;;;6086973;23;21271;-83
2022/05/17 02:01:49;;;;;;;7.10;6.40;;;15.10;99.90;;;;;;6087398;23;20448;-83
2022/05/17 02:04:16;;;;;;;8.47;7.47;;;15.10;99.90;;;;;;6084796;23;20446;-83
2022/05/17 02:06:43;;;;;;;8.37;7.57;;;15.10;99.90;;;;;;6089446;23;20445;-83
2022/05/17 02:09:10;;;;;;;7.77;7.07;;;15.10;99.90;;;;;;6085043;23;20540;-83
2022/05/17 02:11:37;;;;;;;8.87;8.07;;;15.00;99.90;;;;;;6085478;23;20457;-83
2022/05/17 02:14:06;;;;;;;8.80;7.30;;;15.00;99.90;;;;;;6091059;23;20553;-83
2022/05/17 02:16:36;;;;;;;8.77;7.77;;;14.90;99.90;;;;;;6088531;23;20454;-83
2022/05/17 02:19:03;;;;;;;9.13;8.23;;;14.90;99.90;;;;;;6090021;23;20514;-83
2022/05/17 02:21:30;;;;;;;9.73;8.83;;;14.90;99.90;;;;;;6076379;23;20523;-83
2022/05/17 02:23:57;;;;;;;9.47;8.43;;;14.80;99.90;;;;;;6087819;23;20439;-83
2022/05/17 02:26:24;;;;;;;8.97;8.23;;;14.80;99.90;;;;;;6088096;23;20465;-82
2022/05/17 02:28:51;;;;;;;11.23;8.47;;;14.80;99.90;;;;;;6089798;23;20472;-83
2022/05/17 02:31:19;;;;;;;9.80;8.90;;;14.70;99.90;;;;;;6082334;23;20446;-82
2022/05/17 02:33:46;;;;;;;9.53;8.73;;;14.70;99.90;;;;;;6089184;23;20509;-83
2022/05/17 02:36:14;;;;;;;9.27;8.50;;;14.70;99.90;;;;;;6089417;23;20472;-83
2022/05/17 02:38:43;;;;;;;10.10;9.20;;;14.60;99.90;;;;;;6089561;23;20459;-83
2022/05/17 02:41:11;;;;;;;9.50;8.60;;;14.60;99.90;;;;;;6080492;23;20448;-84
2022/05/17 02:43:38;;;;;;;9.77;8.85;;;14.60;99.90;;;;;;6085867;23;20448;-83
2022/05/17 02:46:05;;;;;;;9.83;8.93;;;14.60;99.90;;;;;;6087746;23;20663;-82
2022/05/17 02:48:33;;;;;;;9.60;8.77;;;14.50;99.90;;;;;;6085746;23;20598;-83
2022/05/17 02:51:09;;;;;;;9.70;8.80;;;14.40;99.90;;;;;;6078543;23;20442;-83
2022/05/17 02:53:36;;;;;;;10.20;9.30;;;14.40;99.90;;;;;;6088943;23;20817;-83
2022/05/17 02:56:03;;;;;;;10.10;9.20;;;14.40;99.90;;;;;;6088994;23;20462;-83
2022/05/17 02:58:30;;;;;;;10.87;9.93;;;14.30;99.90;;;;;;6088999;23;20995;-83
2022/05/17 03:00:57;;;;;;;12.07;10.97;;;14.30;99.90;;;;;;6084711;23;20954;-83
2022/05/17 03:03:24;;;;;;;10.60;9.60;;;14.30;99.90;;;;;;6088476;23;20542;-83
2022/05/17 03:05:52;;;;;;;11.30;10.30;;;14.30;99.90;;;;;;6087380;23;20573;-83
2022/05/17 03:08:19;;;;;;;11.60;10.60;;;14.20;99.90;;;;;;6091679;23;20547;-83
2022/05/17 03:10:46;;;;;;;12.20;11.10;;;14.20;99.90;;;;;;6086621;23;20479;-83
2022/05/17 03:13:15;;;;;;;12.10;11.00;;;14.20;99.90;;;;;;6088242;23;21259;-83
2022/05/17 03:15:42;;;;;;;11.60;10.50;;;14.10;99.90;;;;;;6089417;23;21023;-83
2022/05/17 03:18:09;;;;;;;13.50;12.40;;;14.10;99.90;;;;;;6088584;23;20510;-83
2022/05/17 03:20:36;;;;;;;13.13;11.97;;;14.10;99.90;;;;;;6086520;23;20471;-83
2022/05/17 03:23:05;;;;;;;13.90;12.60;;;14.10;99.90;;;;;;6087765;23;20444;-83
2022/05/17 03:25:32;;;;;;;12.00;10.93;;;14.10;99.90;;;;;;6085983;23;20439;-83
2022/05/17 03:27:59;;;;;;;11.17;10.17;;;14.10;99.90;;;;;;6088748;23;20463;-82
2022/05/17 03:30:26;;;;;;;11.90;10.90;;;14.10;99.90;;;;;;6089799;23;20445;-82
2022/05/17 03:32:54;;;;;;;11.80;10.70;;;14.10;99.90;;;;;;6085523;23;21004;-83
2022/05/17 03:35:22;;;;;;;11.47;10.47;;;14.10;99.90;;;;;;6089976;23;20451;-83
2022/05/17 03:37:49;;;;;;;13.00;11.67;;;14.00;99.90;;;;;;6086972;23;20470;-83
2022/05/17 03:40:18;;;;;;;13.02;11.82;;;13.90;99.90;;;;;;6082734;23;20438;-82
2022/05/17 03:42:45;;;;;;;13.50;12.20;;;13.90;99.90;;;;;;6087270;23;20739;-82
2022/05/17 03:45:13;;;;;;;13.00;11.82;;;13.90;99.90;;;;;;6087685;23;20545;-82
2022/05/17 03:47:40;;;;;;;12.53;11.33;;;13.90;99.90;;;;;;6088513;23;20209;-82
2022/05/17 03:50:09;;;;;;;14.00;12.60;;;13.90;99.90;;;;;;6087914;23;20486;-83
2022/05/17 03:52:36;;;;;;;14.87;13.43;;;13.90;99.90;;;;;;6089592;23;20444;-83
2022/05/17 03:55:05;;;;;;;14.10;12.77;;;13.90;99.90;;;;;;6089944;23;20582;-83
2022/05/17 03:57:34;;;;;;;15.67;13.57;;;13.90;99.90;;;;;;6087714;23;20468;-83
2022/05/17 04:00:01;;;;;;;13.27;12.07;;;13.90;99.90;;;;;;6085493;23;20990;-83
2022/05/17 04:02:28;;;;;;;14.23;12.37;;;13.90;99.90;;;;;;6076822;22;20546;-82
2022/05/17 04:04:56;;;;;;;15.27;13.48;;;13.90;99.90;;;;;;6056072;23;20993;-82
2022/05/17 04:07:23;;;;;;;18.27;13.70;;;13.90;99.90;;;;;;6061351;23;20216;-82
2022/05/17 04:09:50;;;;;;;13.47;12.27;;;13.80;99.90;;;;;;6093953;23;20190;-83
2022/05/17 04:12:17;;;;;;;13.67;12.37;;;13.80;99.90;;;;;;6091589;23;20458;-82
2022/05/17 04:14:49;;;;;;;12.73;11.52;;;13.90;99.90;;;;;;6083958;23;20479;-82
2022/05/17 04:17:16;;;;;;;13.73;12.33;;;13.90;99.90;;;;;;6086274;23;20242;-82
2022/05/17 04:19:43;;;;;;;13.00;11.90;;;13.80;99.90;;;;;;6070981;23;20440;-83
2022/05/17 04:22:11;;;;;;;13.90;12.50;;;13.90;99.90;;;;;;6063724;23;20201;-83
2022/05/17 04:24:38;;;;;;;12.63;11.53;;;13.90;99.90;;;;;;6061230;23;20195;-82
2022/05/17 04:27:05;;;;;;;13.25;11.90;;;13.80;99.90;;;;;;6061943;23;20550;-83
2022/05/17 04:29:32;;;;;;;11.95;10.75;;;13.80;99.90;;;;;;6067916;23;20255;-82
2022/05/17 04:32:01;;;;;;;11.25;10.13;;;13.80;99.90;;;;;;6063032;23;20220;-83
2022/05/17 04:34:28;;;;;;;12.52;11.25;;;13.90;99.90;;;;;;6061870;23;20808;-83
2022/05/17 04:36:55;;;;;;;13.18;12.02;;;13.90;99.90;;;;;;6055200;23;20189;-79
2022/05/17 04:39:24;;;;;;;14.13;12.70;;;13.90;99.90;;;;;;6050978;23;20196;-81
2022/05/17 04:41:51;;;;;;;12.47;11.23;;;13.90;99.90;;;;;;6057619;23;20194;-81
2022/05/17 04:44:18;;;;;;;13.10;11.70;;;13.90;99.90;;;;;;6043705;23;21144;-80
2022/05/17 04:46:45;;;;;;;13.13;11.83;;;13.90;99.90;;;;;;6055631;23;20217;-80
2022/05/17 04:49:13;;;;;;;14.07;11.48;;;13.90;99.90;;;;;;6056487;23;20520;-80
2022/05/17 04:51:40;;;;;;;12.75;11.45;;;13.90;99.90;;;;;;6046643;23;20758;-80
2022/05/17 04:54:07;;;;;;;11.82;10.68;;;13.90;99.90;;;;;;6050847;23;20218;-81
2022/05/17 04:56:35;;;;;;;11.45;10.25;;;13.90;99.90;;;;;;6058933;23;20232;-81
2022/05/17 04:59:02;;;;;;;12.00;11.00;;;14.00;99.90;;;;;;6058433;23;20200;-81
2022/05/17 05:01:31;;;;;;;12.50;11.40;;;14.00;99.90;;;;;;6071029;23;20198;-82
2022/05/17 05:03:58;;;;;;;11.37;10.37;;;14.00;99.90;;;;;;6059042;23;20194;-80
2022/05/17 05:06:27;;;;;;;12.27;11.17;;;14.10;99.90;;;;;;6063718;23;20521;-80
2022/05/17 05:08:54;;;;;;;12.30;10.97;;;14.10;99.90;;;;;;6035161;23;20537;-80
2022/05/17 05:11:21;;;;;;;11.37;10.27;;;14.20;99.90;;;;;;6047765;23;20439;-82
2022/05/17 05:13:48;;;;;;;11.55;10.32;;;14.30;99.90;;;;;;6047695;23;20459;-84
2022/05/17 05:16:16;;;;;;;11.80;10.30;;;14.30;99.90;;;;;;6052542;23;20225;-83
2022/05/17 05:18:43;;;;;;;10.45;9.43;;;14.30;99.90;;;;;;6057749;23;20236;-83
2022/05/17 05:21:12;;;;;;;12.33;11.23;;;14.40;99.90;;;;;;6056293;23;20264;-87
2022/05/17 05:23:42;;;;;;;11.07;9.97;;;14.50;99.90;;;;;;6053721;23;20901;-87
2022/05/17 05:26:11;;;;;;;10.90;9.90;;;14.60;99.90;;;;;;6052339;23;20460;-87
2022/05/17 05:28:39;;;;;;;10.53;9.53;;;14.60;99.90;;;;;;6050509;23;20541;-87
2022/05/17 05:31:06;;;;;;;11.07;9.30;;;14.70;99.90;;;;;;6057903;23;20436;-87
2022/05/17 05:33:34;;;;;;;11.70;9.63;;;14.80;99.90;;;;;;6054962;23;20497;-87
2022/05/17 05:36:02;;;;;;;11.27;10.23;;;14.80;99.90;;;;;;6060849;23;20448;-88
2022/05/17 05:38:29;;;;;;;10.67;9.57;;;14.90;99.90;;;;;;6062532;23;20464;-88
2022/05/17 05:40:58;;;;;;;9.80;8.80;;;15.00;99.90;;;;;;6060933;23;20528;-87
2022/05/17 05:43:25;;;;;;;10.60;9.70;;;15.00;99.90;;;;;;6052380;23;20506;-81
2022/05/17 05:45:52;;;;;;;9.53;8.73;;;15.10;99.90;;;;;;6050517;23;20964;-81
2022/05/17 05:48:20;;;;;;;9.60;8.70;;;15.20;99.90;;;;;;6046654;23;20464;-86
2022/05/17 05:50:47;;;;;;;9.53;8.63;;;15.30;99.90;;;;;;6053312;23;20477;-80
2022/05/17 05:53:15;;;;;;;10.07;9.27;;;15.50;99.90;;;;;;6055454;23;20476;-81
2022/05/17 05:55:44;;;;;;;10.37;9.30;;;15.60;99.90;;;;;;6052380;23;20819;-81
2022/05/17 05:58:13;;;;;;;10.87;9.10;;;15.70;99.90;;;;;;6052233;23;20556;-81
2022/05/17 06:00:40;;;;;;;9.37;8.50;;;15.80;99.90;;;;;;6055632;23;20550;-81
2022/05/17 06:03:08;;;;;;;9.07;8.13;;;15.90;99.90;;;;;;6046686;23;20486;-81
2022/05/17 06:05:36;;;;;;;11.00;7.97;;;16.10;99.90;;;;;;6050181;23;20444;-80
2022/05/17 06:08:04;;;;;;;9.90;9.00;;;16.20;99.90;;;;;;6056218;23;20462;-81
2022/05/17 06:10:31;;;;;;;10.10;9.10;;;16.40;99.90;;;;;;6054681;23;20496;-80
2022/05/17 06:12:58;;;;;;;9.60;8.70;;;16.50;99.90;;;;;;6060294;23;20442;-81
2022/05/17 06:15:27;;;;;;;9.27;8.37;;;16.50;99.90;;;;;;6058841;23;20509;-81
2022/05/17 06:17:53;;;;;;;9.53;8.53;;;16.60;99.90;;;;;;6056056;23;20465;-81
2022/05/17 06:20:20;;;;;;;9.40;8.33;;;16.70;99.90;;;;;;6058933;23;20467;-81
2022/05/17 06:22:48;;;;;;;9.13;8.13;;;16.80;99.90;;;;;;6058785;23;20431;-81
2022/05/17 06:25:15;;;;;;;8.90;8.10;;;17.00;99.90;;;;;;6055899;23;20444;-81
2022/05/17 06:27:42;;;;;;;9.47;8.60;;;17.10;99.90;;;;;;6063891;23;20467;-81
2022/05/17 06:30:11;;;;;;;10.10;9.10;;;17.20;99.90;;;;;;6052210;23;21176;-82
2022/05/17 06:32:39;;;;;;;9.60;8.60;;;17.30;99.90;;;;;;6050869;23;20427;-81
2022/05/17 06:35:07;;;;;;;11.90;8.60;;;17.40;99.90;;;;;;6056358;23;21002;-81
2022/05/17 06:37:34;;;;;;;11.93;8.43;;;17.50;99.90;;;;;;6053918;23;21039;-81
2022/05/17 06:40:02;;;;;;;12.43;9.30;;;17.60;99.90;;;;;;6053759;23;20460;-81
2022/05/17 06:42:29;;;;;;;8.80;7.87;;;17.70;99.90;;;;;;6057224;23;20520;-81
2022/05/17 06:44:56;;;;;;;10.70;8.17;;;17.90;99.90;;;;;;6051137;23;20515;-80
2022/05/17 06:47:23;;;;;;;9.73;8.23;;;18.00;99.90;;;;;;6051397;23;20467;-81
2022/05/17 06:49:51;;;;;;;9.50;8.60;;;18.30;99.90;;;;;;6053084;23;20840;-80
2022/05/17 06:52:20;;;;;;;8.70;7.90;;;18.40;99.90;;;;;;6058397;23;20443;-81
2022/05/17 06:54:48;;;;;;;8.23;7.50;;;18.60;99.90;;;;;;6058325;23;20466;-80
2022/05/17 06:57:16;;;;;;;7.30;6.60;;;18.70;99.90;;;;;;6061564;23;20448;-80
2022/05/17 06:59:46;;;;;;;7.30;6.70;;;18.90;99.90;;;;;;6083136;23;20442;-81
2022/05/17 07:02:13;;;;;;;7.73;6.97;;;19.10;99.90;;;;;;6077321;23;20447;-81
2022/05/17 07:04:40;;;;;;;7.33;6.53;;;19.20;99.90;;;;;;6051683;23;20440;-79
2022/05/17 07:07:09;;;;;;;8.10;7.37;;;19.30;99.90;;;;;;6061906;23;20537;-80
2022/05/17 07:09:37;;;;;;;7.07;6.43;;;19.50;99.90;;;;;;6059501;23;20519;-79
2022/05/17 07:14:49;;;;;;;7.17;6.57;;;19.90;99.90;;;;;;6047110;23;20470;-81
2022/05/17 07:17:18;;;;;;;6.73;6.23;;;20.20;99.90;;;;;;6053721;23;20499;-81
2022/05/17 07:19:47;;;;;;;7.10;6.50;;;20.40;99.90;;;;;;6054612;23;20524;-81
2022/05/17 07:22:15;;;;;;;9.40;7.10;;;20.80;99.90;;;;;;6058809;23;20443;-81
2022/05/17 07:24:45;;;;;;;6.90;6.27;;;21.20;99.90;;;;;;6050141;23;20441;-81
2022/05/17 07:27:13;;;;;;;6.53;5.73;;;21.70;99.90;;;;;;6048701;23;21007;-81
2022/05/17 07:29:41;;;;;;;6.80;6.10;;;22.20;99.90;;;;;;6054921;23;20439;-80
2022/05/17 07:32:08;;;;;;;6.30;5.70;;;22.70;99.90;;;;;;6056570;23;20439;-80
2022/05/17 07:34:36;;;;;;;7.50;6.83;;;23.20;99.90;;;;;;6054107;23;20467;-81
2022/05/17 07:37:03;;;;;;;7.10;6.40;;;23.60;99.90;;;;;;6051932;23;20467;-81
2022/05/17 07:39:32;;;;;;;6.80;6.20;;;23.90;99.90;;;;;;6055272;23;21290;-81
2022/05/17 07:41:59;;;;;;;5.77;5.27;;;24.10;99.90;;;;;;6058194;23;20470;-81
2022/05/17 07:44:26;;;;;;;7.20;6.20;;;24.70;99.90;;;;;;6054217;23;20448;-81
2022/05/17 07:46:54;;;;;;;6.57;5.97;;;24.60;99.90;;;;;;6059320;23;20463;-80
2022/05/17 07:49:21;;;;;;;6.30;5.70;;;25.00;99.90;;;;;;6055551;23;20443;-81
2022/05/17 07:51:48;;;;;;;5.60;5.10;;;25.50;99.90;;;;;;6059082;23;20546;-81
2022/05/17 07:54:15;;;;;;;5.30;4.80;;;25.70;99.90;;;;;;6061826;23;20436;-81
2022/05/17 07:56:43;;;;;;;5.13;4.70;;;26.00;99.90;;;;;;6058415;23;20872;-81
2022/05/17 07:59:10;;;;;;;5.83;4.50;;;26.50;99.90;;;;;;6060331;23;20447;-81
2022/05/17 08:01:38;;;;;;;4.80;4.40;;;26.50;99.90;;;;;;6060682;23;20475;-81
2022/05/17 08:04:05;;;;;;;5.17;4.73;;;26.20;99.90;;;;;;6061146;23;20505;-81
2022/05/17 08:06:35;;;;;;;5.50;4.73;;;26.10;99.90;;;;;;6065292;23;20478;-81
2022/05/17 08:09:02;;;;;;;5.73;4.50;;;25.90;99.90;;;;;;6059688;23;20447;-81
2022/05/17 08:11:31;;;;;;;5.10;4.50;;;25.90;99.90;;;;;;6060269;23;20450;-81
2022/05/17 08:14:00;;;;;;;5.77;4.43;;;25.90;99.90;;;;;;6047620;23;20536;-81
2022/05/17 08:16:27;;;;;;;4.77;4.27;;;26.10;99.70;;;;;;6047656;23;20987;-81
2022/05/17 08:18:54;;;;;;;4.90;4.10;;;26.20;99.90;;;;;;6060150;23;20974;-81
2022/05/17 08:21:21;;;;;;;6.80;4.33;;;26.50;98.80;;;;;;6061043;23;20445;-81
2022/05/17 08:23:48;;;;;;;4.60;4.30;;;26.40;97.90;;;;;;6060389;23;20485;-81
2022/05/17 08:29:00;;;;;;;3.93;3.53;;;26.20;98.10;;;;;;6027281;23;20443;-81
2022/05/17 08:31:27;;;;;;;4.53;3.77;;;26.60;98.20;;;;;;6061643;23;20471;-81
2022/05/17 08:33:54;;;;;;;4.53;3.70;;;27.40;96.70;;;;;;6062679;23;20790;-81
2022/05/17 08:36:21;;;;;;;4.50;3.53;;;27.80;96.20;;;;;;6059906;23;20954;-81
2022/05/17 08:38:49;;;;;;;3.80;3.50;;;28.30;94.80;;;;;;6059844;23;20443;-81
2022/05/17 08:41:25;;;;;;;5.53;3.67;;;28.50;94.60;;;;;;6062454;23;20801;-81
2022/05/17 08:43:55;;;;;;;4.50;3.30;;;28.60;93.50;;;;;;6044245;23;20836;-81
2022/05/17 08:46:34;;;;;;;4.03;3.60;;;28.50;92.50;;;;;;6051075;23;20486;-81
2022/05/17 08:49:09;;;;;;;4.50;2.97;;;27.60;93.10;;;;;;6064489;23;20519;-81
2022/05/17 08:51:41;;;;;;;6.00;3.50;;;27.50;93.30;;;;;;6053625;23;20438;-81
2022/05/17 08:54:11;;;;;;;5.20;3.63;;;27.40;92.60;;;;;;6059715;23;21020;-81
2022/05/17 08:56:43;;;;;;;3.63;3.10;;;27.40;92.90;;;;;;6060220;23;20506;-81
2022/05/17 08:59:15;;;;;;;3.90;3.30;;;27.50;93.20;;;;;;6058957;23;20466;-82
2022/05/17 09:01:47;;;;;;;3.50;3.20;;;27.70;92.00;;;;;;6045611;23;21007;-82
2022/05/17 09:04:41;;;;;;;4.47;3.80;;;27.90;91.30;;;;;;6059886;23;20454;-91
2022/05/17 09:07:16;;;;;;;4.20;3.53;;;27.90;91.10;;;;;;6059085;23;20495;-81
2022/05/17 09:09:57;;;;;;;3.53;3.20;;;28.10;91.50;;;;;;6057705;23;20509;-81
2022/05/17 09:12:31;;;;;;;5.20;3.50;;;28.30;91.10;;;;;;6056304;23;20440;-81
2022/05/17 09:15:01;;;;;;;4.00;3.13;;;28.40;90.00;;;;;;6061485;23;20437;-80
2022/05/17 09:17:30;;;;;;;4.37;3.47;;;28.70;89.20;;;;;;6050173;23;20459;-81
2022/05/17 09:19:57;;;;;;;3.97;3.17;;;28.70;87.40;;;;;;6052832;23;20455;-81
2022/05/17 09:22:25;;;;;;;3.90;3.10;;;28.80;87.00;;;;;;6061017;23;20443;-80
2022/05/17 09:24:57;;;;;;;4.03;3.23;;;29.00;88.60;;;;;;6071641;23;20431;-81
2022/05/17 09:27:27;;;;;;;3.47;3.17;;;29.60;86.40;;;;;;6081297;23;20521;-80
2022/05/17 09:29:58;;;;;;;4.97;3.40;;;29.90;85.70;;;;;;6072097;23;20428;-80
2022/05/17 09:32:29;;;;;;;3.40;3.10;;;30.20;84.10;;;;;;6049930;23;20440;-81
2022/05/17 09:35:01;;;;;;;3.87;3.33;;;30.60;84.00;;;;;;6067877;23;20435;-79
2022/05/17 09:37:34;;;;;;;4.13;3.60;;;30.80;82.50;;;;;;6074965;23;20490;-80
2022/05/17 09:40:04;;;;;;;4.80;3.07;;;31.50;80.70;;;;;;6077178;23;20432;-80
2022/05/17 09:42:35;;;;;;;4.33;3.37;;;31.80;77.70;;;;;;6086478;23;20435;-80
2022/05/17 09:45:06;;;;;;;3.53;3.20;;;31.90;77.20;;;;;;6073865;23;20499;-80
2022/05/17 09:47:41;;;;;;;3.23;3.03;;;31.90;75.90;;;;;;6073391;23;20567;-80
2022/05/17 09:53:15;;;;;;;3.50;3.20;;;32.10;75.10;;;;;;6076828;23;20459;-82
2022/05/17 09:55:48;;;;;;;4.43;3.33;;;32.70;74.50;;;;;;6074635;23;20537;-80
2022/05/17 09:58:30;;;;;;;3.50;3.20;;;32.80;71.70;;;;;;6082587;23;20798;-81
2022/05/17 10:00:57;;;;;;;3.93;3.50;;;33.40;69.70;;;;;;6074093;23;20470;-81
2022/05/17 10:03:31;;;;;;;4.30;3.73;;;33.20;69.60;;;;;;6073287;23;20496;-81
2022/05/17 10:06:02;;;;;;;3.40;3.00;;;33.10;68.60;;;;;;6070219;23;20517;-80
2022/05/17 10:08:34;;;;;;;5.20;4.07;;;32.50;69.70;;;;;;6060629;23;20542;-81
2022/05/17 10:11:06;;;;;;;4.50;4.10;;;31.90;70.00;;;;;;6067769;23;20477;-81
2022/05/17 10:13:36;;;;;;;5.03;3.80;;;31.30;71.00;;;;;;6071624;23;20630;-81
2022/05/17 10:16:10;;;;;;;3.97;3.47;;;31.10;71.90;;;;;;6056798;23;21076;-81
2022/05/17 10:18:41;;;;;;;4.17;3.50;;;31.20;72.40;;;;;;6068981;23;20453;-81
2022/05/17 10:21:20;;;;;;;3.40;3.10;;;31.70;72.60;;;;;;6064986;23;20530;-81
2022/05/17 10:23:58;;;;;;;3.57;3.10;;;32.40;71.30;;;;;;6060500;23;20455;-81
2022/05/17 10:26:33;;;;;;;3.30;3.00;;;33.30;68.60;;;;;;6047204;23;20463;-82
2022/05/17 10:29:04;;;;;;;4.53;3.30;;;33.50;68.00;;;;;;6054675;23;20443;-80
2022/05/17 10:31:37;;;;;;;4.33;3.40;;;32.60;68.40;;;;;;6055447;23;20474;-81
2022/05/17 10:34:21;;;;;;;3.00;2.70;;;32.90;69.40;;;;;;6054682;23;20945;-81
2022/05/17 10:36:55;;;;;;;4.90;3.23;;;32.90;69.20;;;;;;6050059;23;20471;-81
2022/05/17 10:39:30;;;;;;;4.40;3.53;;;32.80;67.90;;;;;;6056413;23;20439;-81
2022/05/17 10:41:57;;;;;;;5.90;3.00;;;32.60;67.60;;;;;;6054219;23;20430;-81
2022/05/17 10:44:31;;;;;;;4.27;3.67;;;32.80;66.10;;;;;;6046517;23;20431;-81
2022/05/17 10:47:07;;;;;;;4.93;4.43;;;32.80;64.80;;;;;;6056132;23;20459;-81
2022/05/17 10:49:44;;;;;;;4.20;3.20;;;31.70;66.30;;;;;;6052958;23;20439;-81
2022/05/17 10:52:21;;;;;;;4.03;2.90;;;31.50;67.50;;;;;;6054148;23;20446;-81
2022/05/17 10:54:58;;;;;;;4.27;3.87;;;31.10;68.20;;;;;;6055262;23;20462;-81
2022/05/17 10:57:35;;;;;;;5.27;3.67;;;31.10;68.20;;;;;;6059125;23;20506;-80
2022/05/17 11:00:09;;;;;;;6.33;3.73;;;31.30;69.20;;;;;;6061441;23;20442;-80
2022/05/17 11:03:00;;;;;;;4.93;3.33;;;31.30;69.70;;;;;;6058725;23;20850;-80
2022/05/17 11:05:36;;;;;;;5.77;3.93;;;30.90;70.20;;;;;;6061013;23;20581;-81
2022/05/17 11:08:14;;;;;;;5.00;3.43;;;30.40;70.30;;;;;;6065356;23;20451;-81
2022/05/17 11:10:51;;;;;;;4.77;3.80;;;30.10;71.10;;;;;;6059399;23;20877;-80
2022/05/17 11:13:27;;;;;;;4.33;3.93;;;29.10;72.60;;;;;;6062534;23;20794;-80
2022/05/17 11:15:59;;;;;;;5.87;3.90;;;28.20;74.10;;;;;;6055646;23;20477;-80
2022/05/17 11:18:39;;;;;;;5.00;3.40;;;28.40;75.50;;;;;;6082837;23;20491;-81
2022/05/17 11:21:13;;;;;;;3.50;3.10;;;28.80;74.80;;;;;;6057327;23;20865;-79
2022/05/17 11:23:50;;;;;;;3.97;2.60;;;29.40;71.90;;;;;;6054115;23;20438;-78
2022/05/17 11:26:57;;;;;;;3.37;3.07;;;29.10;69.80;;;;;;6058952;23;20483;-79
2022/05/17 11:30:08;;;;;;;3.20;2.43;;;29.60;68.40;;;;;;6035109;23;20436;-80
2022/05/17 11:32:38;;;;;;;3.87;3.20;;;30.00;66.80;;;;;;6056448;23;20977;-80
2022/05/17 11:35:26;;;;;;;3.40;2.80;;;30.80;67.50;;;;;;6055089;23;20526;-80
2022/05/17 11:37:54;;;;;;;2.97;2.60;;;31.50;66.90;;;;;;6053722;23;20485;-80
2022/05/17 11:40:52;;;;;;;4.57;2.40;;;32.10;65.10;;;;;;6054059;23;20534;-80
2022/05/17 11:46:27;;;;;;;3.10;2.07;;;33.00;62.90;;;;;;6055500;23;20458;-79
2022/05/17 11:48:56;;;;;;;2.90;2.50;;;33.30;62.10;;;;;;6056096;23;20440;-80
2022/05/17 11:51:24;;;;;;;4.27;2.47;;;33.40;59.70;;;;;;6052914;23;20783;-80
2022/05/17 11:53:53;;;;;;;2.50;2.30;;;33.50;59.00;;;;;;6050337;23;20431;-80
2022/05/17 11:56:34;;;;;;;3.80;2.60;;;33.40;59.50;;;;;;6051427;23;20524;-80
2022/05/17 11:59:43;;;;;;;2.60;2.40;;;32.80;59.90;;;;;;6054437;23;20558;-79
2022/05/17 12:02:14;;;;;;;4.60;2.27;;;32.20;60.50;;;;;;6046682;23;20447;-81
2022/05/17 12:04:44;;;;;;;2.23;2.00;;;32.40;59.50;;;;;;6071613;23;20478;-79
2022/05/17 12:07:23;;;;;;;3.53;2.40;;;32.10;59.80;;;;;;6063112;23;20524;-79
2022/05/17 12:09:53;;;;;;;2.33;2.10;;;32.50;58.30;;;;;;6059468;23;20539;-79
2022/05/17 12:12:58;;;;;;;4.13;3.80;;;32.60;58.10;;;;;;6042846;23;20435;-80
2022/05/17 12:15:46;;;;;;;6.07;5.10;;;32.80;55.80;;;;;;6047539;23;20448;-79
2022/05/17 12:18:27;;;;;;;3.83;2.40;;;32.50;58.30;;;;;;6056138;23;20450;-79
2022/05/17 12:21:19;;;;;;;2.40;2.00;;;31.80;55.30;;;;;;6050768;23;20443;-80
2022/05/17 12:23:51;;;;;;;4.80;4.30;;;30.80;55.70;;;;;;6053760;23;20443;-79
2022/05/17 12:26:25;;;;;;;2.40;1.70;;;31.30;58.50;;;;;;6058586;23;20988;-79
2022/05/17 12:28:54;;;;;;;3.80;1.83;;;30.70;56.30;;;;;;6055238;23;20443;-79
2022/05/17 12:31:25;;;;;;;2.40;1.77;;;30.70;58.10;;;;;;6059899;23;20503;-80
2022/05/17 12:33:53;;;;;;;3.30;1.90;;;31.60;58.40;;;;;;6060202;23;20451;-78
2022/05/17 12:36:23;;;;;;;2.33;1.80;;;32.40;58.00;;;;;;6056966;23;20478;-83
2022/05/17 12:44:40;;;;;;;1.77;1.63;;;33.60;56.70;;;;;;6047248;23;20439;-76
2022/05/17 12:47:12;;;;;;;1.80;1.70;;;33.50;56.10;;;;;;6053430;23;20852;-75
2022/05/17 12:49:42;;;;;;;2.20;2.00;;;32.90;56.70;;;;;;6051456;23;20436;-76
2022/05/17 12:52:15;;;;;;;1.83;1.53;;;32.30;57.50;;;;;;6052499;23;20440;-78
2022/05/17 12:54:42;;;;;;;2.73;1.53;;;32.50;56.70;;;;;;6046943;23;20455;-75
2022/05/17 15:32:44;;;;;;;2.47;1.40;;;39.80;38.30;;;;;;6163704;22;20558;-77
2022/05/17 15:35:13;;;;;;;1.80;1.70;;;40.10;38.10;;;;;;6137879;23;20456;-84
2022/05/17 15:37:40;;;;;;;2.30;1.80;;;40.10;37.70;;;;;;6141336;23;20443;-85
2022/05/17 15:40:09;;;;;;;1.60;1.50;;;39.90;38.50;;;;;;6144237;23;20433;-84
2022/05/17 15:42:35;;;;;;;2.70;1.90;;;39.90;38.20;;;;;;6136276;23;20448;-84
2022/05/17 15:45:03;;;;;;;1.70;1.43;;;40.00;38.30;;;;;;6133345;23;20535;-84
2022/05/17 15:53:18;;;;;;;2.60;1.73;;;40.50;37.50;;;;;;6170901;23;20419;-87
2022/05/17 15:56:02;;;;;;;1.97;1.53;;;38.70;38.80;;;;;;6145501;23;20534;-83